Time;durP1;ratioP1;P1;durP2;ratioP2;P2;SDS_P1;SDS_P2;PMS_P1;PMS_P2;Temp;Humidity;BMP_temperature;BMP_pressure;BME280_temperature;BME280_humidity;BME280_pressure;Samples;Min_cycle;Max_cycle;Signal;HPM_P1;HPM_P2
2022/03/02 00:01:51;;;;;;;;;;;5.00;99.90;;;;;;5115277;28;19977;-62
2022/03/02 00:04:16;;;;;;;;;;;5.00;99.90;;;;;;5115969;28;19928;-62
2022/03/02 00:06:42;;;;;;;;;;;5.00;99.90;;;;;;5115158;28;19985;-62
2022/03/02 00:09:08;;;;;;;;;;;5.00;99.90;;;;;;5093006;28;20255;-63
2022/03/02 00:11:33;;;;;;;;;;;4.90;99.90;;;;;;5095346;28;19959;-62
2022/03/02 00:14:00;;;;;;;;;;;4.90;99.90;;;;;;5096382;28;19921;-62
2022/03/02 00:16:28;;;;;;;;;;;5.00;99.90;;;;;;5114410;28;19966;-62
2022/03/02 00:18:55;;;;;;;;;;;5.00;99.90;;;;;;5103568;28;19978;-62
2022/03/02 00:21:20;;;;;;;;;;;5.00;99.90;;;;;;5093583;28;19924;-62
2022/03/02 00:23:46;;;;;;;;;;;5.00;99.90;;;;;;5093735;28;19928;-62
2022/03/02 00:26:12;;;;;;;;;;;5.00;99.90;;;;;;5085175;28;20369;-62
2022/03/02 00:28:38;;;;;;;;;;;5.00;99.90;;;;;;5096926;28;19924;-62
2022/03/02 00:31:03;;;;;;;;;;;4.90;99.90;;;;;;5096574;28;19924;-62
2022/03/02 00:33:29;;;;;;;;;;;4.90;99.90;;;;;;5114340;28;19935;-62
2022/03/02 00:35:54;;;;;;;;;;;4.90;99.90;;;;;;5096870;28;19924;-61
2022/03/02 00:38:20;;;;;;;;;;;4.90;99.90;;;;;;5094434;28;19931;-63
2022/03/02 00:40:46;;;;;;;;;;;4.90;99.90;;;;;;5075879;28;19931;-62
2022/03/02 00:43:11;;;;;;;;;;;5.00;99.90;;;;;;5097916;28;19924;-62
2022/03/02 00:45:37;;;;;;;;;;;4.90;99.90;;;;;;5096268;28;19919;-62
2022/03/02 00:48:04;;;;;;;;;;;4.90;99.90;;;;;;5095737;28;19971;-62
2022/03/02 00:50:30;;;;;;;;;;;5.00;99.90;;;;;;5114895;28;20010;-62
2022/03/02 00:52:56;;;;;;;;;;;4.90;99.90;;;;;;5090047;28;19920;-62
2022/03/02 00:55:21;;;;;;;;;;;4.90;99.90;;;;;;5113903;28;20003;-62
2022/03/02 00:57:47;;;;;;;;;;;4.90;99.90;;;;;;5114633;28;19928;-62
2022/03/02 01:00:13;;;;;;;;;;;4.80;99.90;;;;;;5114293;28;19974;-62
2022/03/02 01:02:39;;;;;;;;;;;4.70;99.90;;;;;;5094755;28;19927;-62
2022/03/02 01:05:05;;;;;;;;;;;4.80;99.90;;;;;;5114645;28;20385;-61
2022/03/02 01:07:31;;;;;;;;;;;4.80;99.90;;;;;;5090987;28;20453;-62
2022/03/02 01:09:57;;;;;;;;;;;4.80;99.90;;;;;;5098288;28;20006;-62
2022/03/02 01:12:22;;;;;;;;;;;4.80;99.90;;;;;;5114632;28;19923;-62
2022/03/02 01:14:48;;;;;;;;;;;4.80;99.90;;;;;;5114128;28;20370;-62
2022/03/02 01:17:13;;;;;;;;;;;4.80;99.90;;;;;;5113239;28;19931;-62
2022/03/02 01:19:39;;;;;;;;;;;4.80;99.90;;;;;;5088573;28;19924;-62
2022/03/02 01:22:05;;;;;;;;;;;4.80;99.90;;;;;;5093433;28;20271;-62
2022/03/02 01:24:31;;;;;;;;;;;4.80;99.90;;;;;;5092920;28;19924;-62
2022/03/02 01:26:56;;;;;;;;;;;4.80;99.90;;;;;;5094010;28;20366;-62
2022/03/02 01:29:23;;;;;;;;;;;4.80;99.90;;;;;;5113085;28;19924;-62
2022/03/02 01:31:49;;;;;;;;;;;4.80;99.90;;;;;;5113514;28;19924;-62
2022/03/02 01:34:14;;;;;;;;;;;4.80;99.90;;;;;;5113782;28;19927;-62
2022/03/02 01:36:40;;;;;;;;;;;4.80;99.90;;;;;;5112453;28;19977;-62
2022/03/02 01:39:06;;;;;;;;;;;4.80;99.90;;;;;;5114119;28;19928;-62
2022/03/02 01:41:31;;;;;;;;;;;4.90;99.90;;;;;;5095668;28;19971;-62
2022/03/02 01:43:57;;;;;;;;;;;4.80;99.90;;;;;;5099253;28;20019;-62
2022/03/02 01:46:23;;;;;;;;;;;4.80;99.90;;;;;;5107199;28;20316;-62
2022/03/02 01:48:48;;;;;;;;;;;4.80;99.90;;;;;;5113928;28;20329;-62
2022/03/02 01:51:14;;;;;;;;;;;4.80;99.90;;;;;;5110465;28;19951;-62
2022/03/02 01:53:41;;;;;;;;;;;4.70;99.90;;;;;;5074554;28;19924;-62
2022/03/02 01:56:06;;;;;;;;;;;4.70;99.90;;;;;;5075581;28;19956;-62
2022/03/02 01:58:32;;;;;;;;;;;4.70;99.90;;;;;;5092483;28;19966;-62
2022/03/02 02:00:58;;;;;;;;;;;4.70;99.90;;;;;;5093203;28;19924;-62
2022/03/02 02:03:24;;;;;;;;;;;4.70;99.90;;;;;;5082999;28;19930;-62
2022/03/02 02:05:50;;;;;;;;;;;4.80;99.90;;;;;;5112525;28;20093;-62
2022/03/02 02:08:16;;;;;;;;;;;4.70;99.90;;;;;;5102755;28;19943;-62
2022/03/02 02:10:41;;;;;;;;;;;4.70;99.90;;;;;;5075027;28;20496;-62
2022/03/02 02:13:07;;;;;;;;;;;4.70;99.90;;;;;;5108045;28;20400;-62
2022/03/02 02:15:33;;;;;;;;;;;4.60;99.90;;;;;;5113256;28;19919;-62
2022/03/02 02:17:58;;;;;;;;;;;4.60;99.90;;;;;;5091099;28;20382;-62
2022/03/02 02:20:25;;;;;;;;;;;4.60;99.90;;;;;;5076435;28;20401;-62
2022/03/02 02:22:51;;;;;;;;;;;4.60;99.90;;;;;;5077920;28;19931;-62
2022/03/02 02:25:17;;;;;;;;;;;4.60;99.90;;;;;;5084436;28;19928;-62
2022/03/02 02:27:44;;;;;;;;;;;4.50;99.90;;;;;;5092235;28;19920;-62
2022/03/02 02:30:11;;;;;;;;;;;4.50;99.90;;;;;;5092238;28;19993;-62
2022/03/02 02:32:37;;;;;;;;;;;4.40;99.90;;;;;;5093147;28;20374;-62
2022/03/02 02:35:04;;;;;;;;;;;4.40;99.90;;;;;;5092220;28;19931;-62
2022/03/02 02:37:30;;;;;;;;;;;4.40;99.90;;;;;;5074488;28;19931;-62
2022/03/02 02:39:57;;;;;;;;;;;4.30;99.90;;;;;;5110267;28;19997;-62
2022/03/02 02:42:24;;;;;;;;;;;4.30;99.90;;;;;;5094467;28;20014;-62
2022/03/02 02:44:50;;;;;;;;;;;4.20;99.90;;;;;;5092595;28;19956;-61
2022/03/02 02:47:15;;;;;;;;;;;4.00;99.90;;;;;;5100007;28;19970;-62
2022/03/02 02:49:41;;;;;;;;;;;3.90;99.90;;;;;;5117347;28;20404;-62
2022/03/02 02:52:07;;;;;;;;;;;3.70;99.90;;;;;;5107109;28;19975;-62
2022/03/02 02:54:32;;;;;;;;;;;3.50;99.90;;;;;;5077690;28;20324;-62
2022/03/02 02:56:58;;;;;;;;;;;3.30;99.90;;;;;;5095912;28;19924;-62
2022/03/02 02:59:24;;;;;;;;;;;3.20;99.90;;;;;;5096521;28;20358;-62
2022/03/02 03:01:50;;;;;;;;;;;3.00;99.90;;;;;;5077304;28;19997;-61
2022/03/02 03:04:16;;;;;;;;;;;2.90;99.90;;;;;;5078560;28;19931;-62
2022/03/02 03:06:42;;;;;;;;;;;2.80;99.90;;;;;;5077675;28;19920;-62
2022/03/02 03:09:08;;;;;;;;;;;2.70;99.90;;;;;;5059644;28;19931;-62
2022/03/02 03:11:37;;;;;;;;;;;2.70;99.90;;;;;;5076155;28;20370;-62
2022/03/02 03:14:06;;;;;;;;;;;2.70;99.90;;;;;;5090602;28;20328;-62
2022/03/02 03:16:32;;;;;;;;;;;2.60;99.90;;;;;;5097729;28;19923;-62
2022/03/02 03:18:59;;;;;;;;;;;2.50;99.90;;;;;;5068876;28;21246;-62
2022/03/02 03:21:25;;;;;;;;;;;2.40;99.90;;;;;;5095707;28;19924;-62
2022/03/02 03:23:50;;;;;;;;;;;2.30;99.90;;;;;;5110588;28;19931;-61
2022/03/02 03:26:16;;;;;;;;;;;2.40;99.90;;;;;;5097072;28;19928;-61
2022/03/02 03:28:41;;;;;;;;;;;2.40;99.90;;;;;;5095902;28;19978;-62
2022/03/02 03:31:07;;;;;;;;;;;2.30;99.90;;;;;;5097208;28;19925;-62
2022/03/02 03:33:33;;;;;;;;;;;2.30;99.90;;;;;;5116455;28;19924;-62
2022/03/02 03:35:58;;;;;;;;;;;2.20;99.90;;;;;;5115906;28;19931;-61
2022/03/02 03:38:24;;;;;;;;;;;2.10;99.90;;;;;;5115658;28;19969;-61
2022/03/02 03:40:50;;;;;;;;;;;2.10;99.90;;;;;;5115623;28;19976;-61
2022/03/02 03:43:15;;;;;;;;;;;2.10;99.90;;;;;;5088825;28;20278;-62
2022/03/02 03:45:41;;;;;;;;;;;2.10;99.90;;;;;;5095591;28;20305;-61
2022/03/02 03:48:06;;;;;;;;;;;2.10;99.90;;;;;;5077597;28;19927;-62
2022/03/02 03:50:32;;;;;;;;;;;2.20;99.90;;;;;;5110892;28;19930;-61
2022/03/02 03:52:58;;;;;;;;;;;2.10;99.90;;;;;;5099176;28;19924;-61
2022/03/02 03:55:24;;;;;;;;;;;2.10;99.90;;;;;;5077434;28;20443;-61
2022/03/02 03:57:49;;;;;;;;;;;2.10;99.90;;;;;;5093826;28;19924;-61
2022/03/02 04:00:17;;;;;;;;;;;2.10;99.90;;;;;;5095271;28;20396;-62
2022/03/02 04:02:43;;;;;;;;;;;2.00;99.90;;;;;;5077104;28;19993;-61
2022/03/02 04:05:09;;;;;;;;;;;2.00;99.90;;;;;;5094583;28;19931;-61
2022/03/02 04:07:36;;;;;;;;;;;2.00;99.90;;;;;;5100965;28;19927;-61
2022/03/02 04:10:03;;;;;;;;;;;2.10;99.90;;;;;;5093856;28;20381;-61
2022/03/02 04:12:29;;;;;;;;;;;2.00;99.90;;;;;;5076183;28;20026;-61
2022/03/02 04:14:55;;;;;;;;;;;2.00;99.90;;;;;;5095390;28;19920;-61
2022/03/02 04:17:22;;;;;;;;;;;2.10;99.90;;;;;;5113521;28;20006;-61
2022/03/02 04:19:48;;;;;;;;;;;2.10;99.90;;;;;;5094786;28;19969;-61
2022/03/02 04:22:13;;;;;;;;;;;2.00;99.90;;;;;;5076644;28;19927;-61
2022/03/02 04:24:39;;;;;;;;;;;2.00;99.90;;;;;;5094397;28;19931;-61
2022/03/02 04:27:05;;;;;;;;;;;2.10;99.90;;;;;;5093687;28;19924;-61
2022/03/02 04:29:31;;;;;;;;;;;2.10;99.90;;;;;;5095114;28;19924;-61
2022/03/02 04:31:57;;;;;;;;;;;2.10;99.90;;;;;;5095081;28;19924;-62
2022/03/02 04:34:22;;;;;;;;;;;2.20;99.90;;;;;;5106501;28;19920;-61
2022/03/02 04:36:48;;;;;;;;;;;2.10;99.90;;;;;;5115052;28;19967;-61
2022/03/02 04:39:13;;;;;;;;;;;2.10;99.90;;;;;;5115153;28;20438;-61
2022/03/02 04:41:39;;;;;;;;;;;2.00;99.90;;;;;;5113381;28;19924;-62
2022/03/02 04:44:05;;;;;;;;;;;2.00;99.90;;;;;;5094548;28;19939;-62
2022/03/02 04:46:31;;;;;;;;;;;2.00;99.90;;;;;;5093945;28;19920;-62
2022/03/02 04:48:56;;;;;;;;;;;1.90;99.90;;;;;;5094360;28;20287;-61
2022/03/02 04:51:22;;;;;;;;;;;1.90;99.90;;;;;;5097749;28;20441;-62
2022/03/02 04:53:50;;;;;;;;;;;1.90;99.90;;;;;;5093643;28;19920;-61
2022/03/02 04:56:16;;;;;;;;;;;2.00;99.90;;;;;;5075788;28;19924;-62
2022/03/02 04:58:41;;;;;;;;;;;2.00;99.90;;;;;;5094402;28;19924;-62
2022/03/02 05:01:07;;;;;;;;;;;2.00;99.90;;;;;;5092881;28;19924;-61
2022/03/02 05:03:33;;;;;;;;;;;2.00;99.90;;;;;;5094158;28;19924;-61
2022/03/02 05:05:58;;;;;;;;;;;2.00;99.90;;;;;;5076055;28;19924;-62
2022/03/02 05:08:24;;;;;;;;;;;2.00;99.90;;;;;;5074756;28;19932;-62
2022/03/02 05:10:50;;;;;;;;;;;2.00;99.90;;;;;;5113641;28;19924;-61
2022/03/02 05:13:15;;;;;;;;;;;2.00;99.90;;;;;;5114492;28;19931;-62
2022/03/02 05:15:41;;;;;;;;;;;2.00;99.90;;;;;;5095309;28;20366;-61
2022/03/02 05:18:07;;;;;;;;;;;2.00;99.90;;;;;;5108333;28;19924;-61
2022/03/02 05:20:32;;;;;;;;;;;2.00;99.90;;;;;;5058751;28;19924;-61
2022/03/02 05:22:58;;;;;;;;;;;2.00;99.90;;;;;;5092860;28;20412;-61
2022/03/02 05:25:24;;;;;;;;;;;2.00;99.90;;;;;;5093509;28;20003;-61
2022/03/02 05:27:50;;;;;;;;;;;2.00;99.90;;;;;;5093178;28;19931;-62
2022/03/02 05:30:16;;;;;;;;;;;2.10;99.90;;;;;;5093205;28;19925;-62
2022/03/02 05:32:42;;;;;;;;;;;2.10;99.90;;;;;;5075775;28;19977;-61
2022/03/02 05:35:08;;;;;;;;;;;2.10;99.90;;;;;;5096601;28;20319;-61
2022/03/02 05:37:34;;;;;;;;;;;2.10;99.90;;;;;;5113224;28;20289;-62
2022/03/02 05:40:00;;;;;;;;;;;2.10;99.90;;;;;;5113810;28;19930;-61
2022/03/02 05:42:26;;;;;;;;;;;2.10;99.90;;;;;;5094254;28;19923;-61
2022/03/02 05:44:51;;;;;;;;;;;2.00;99.90;;;;;;5102802;28;20022;-61
2022/03/02 05:47:18;;;;;;;;;;;2.00;99.90;;;;;;5113987;28;20418;-62
2022/03/02 05:49:43;;;;;;;;;;;2.00;99.90;;;;;;5113436;28;19969;-61
2022/03/02 05:52:09;;;;;;;;;;;2.00;99.90;;;;;;5103640;28;19928;-61
2022/03/02 05:54:34;;;;;;;;;;;2.00;99.90;;;;;;5111347;28;19947;-62
2022/03/02 05:57:00;;;;;;;;;;;2.10;99.90;;;;;;5094291;28;19966;-61
2022/03/02 05:59:25;;;;;;;;;;;2.10;99.90;;;;;;5113693;28;19924;-61
2022/03/02 06:01:51;;;;;;;;;;;2.10;99.90;;;;;;5094704;28;19924;-61
2022/03/02 06:04:17;;;;;;;;;;;2.00;99.90;;;;;;5094299;28;20369;-62
2022/03/02 06:06:42;;;;;;;;;;;2.00;99.90;;;;;;5095198;28;19928;-61
2022/03/02 06:09:09;;;;;;;;;;;2.00;99.90;;;;;;5095555;28;19931;-61
2022/03/02 06:11:36;;;;;;;;;;;2.00;99.90;;;;;;5104059;28;19934;-61
2022/03/02 06:14:03;;;;;;;;;;;2.00;99.90;;;;;;5095329;28;20405;-61
2022/03/02 06:16:29;;;;;;;;;;;2.10;99.90;;;;;;5094954;28;19919;-61
2022/03/02 06:18:54;;;;;;;;;;;2.10;99.90;;;;;;5100644;28;19931;-61
2022/03/02 06:21:22;;;;;;;;;;;2.10;99.90;;;;;;5099787;28;19924;-61
2022/03/02 06:23:48;;;;;;;;;;;2.10;99.90;;;;;;5097322;28;20421;-61
2022/03/02 06:26:14;;;;;;;;;;;2.00;99.90;;;;;;5096081;28;19978;-61
2022/03/02 06:28:40;;;;;;;;;;;2.00;99.90;;;;;;5103878;28;19975;-61
2022/03/02 06:31:06;;;;;;;;;;;2.00;99.90;;;;;;5099186;28;19924;-61
2022/03/02 06:33:31;;;;;;;;;;;2.00;99.90;;;;;;5098151;28;19924;-61
2022/03/02 06:35:57;;;;;;;;;;;1.90;99.90;;;;;;5117699;28;19924;-62
2022/03/02 06:38:23;;;;;;;;;;;1.90;99.90;;;;;;5116669;28;19924;-62
2022/03/02 06:40:55;;;;;;;;;;;1.90;99.90;;;;;;5116499;28;19931;-62
2022/03/02 06:43:22;;;;;;;;;;;1.80;99.90;;;;;;5108674;28;19924;-62
2022/03/02 06:45:53;;;;;;;;;;;1.70;99.90;;;;;;5080400;28;20398;-62
2022/03/02 06:48:20;;;;;;;;;;;1.70;99.90;;;;;;5116069;28;19924;-62
2022/03/02 06:50:47;;;;;;;;;;;1.70;99.90;;;;;;5117121;28;20006;-62
2022/03/02 06:53:13;;;;;;;;;;;2.00;99.90;;;;;;5096258;28;19947;-62
2022/03/02 06:55:40;;;;;;;;;;;1.90;99.90;;;;;;5088506;28;20015;-62
2022/03/02 06:58:08;;;;;;;;;;;2.10;99.90;;;;;;5117056;28;19946;-62
2022/03/02 07:00:34;;;;;;;;;;;2.10;99.90;;;;;;5097922;28;19936;-62
2022/03/02 07:03:05;;;;;;;;;;;2.60;99.90;;;;;;5116691;28;19931;-62
2022/03/02 07:05:33;;;;;;;;;;;2.40;99.90;;;;;;5097732;28;19923;-62
2022/03/02 07:08:03;;;;;;;;;;;2.80;99.90;;;;;;5089301;28;19924;-62
2022/03/02 07:10:30;;;;;;;;;;;2.40;99.90;;;;;;5095910;28;19931;-62
2022/03/02 07:12:57;;;;;;;;;;;2.60;99.90;;;;;;5096085;28;20267;-61
2022/03/02 07:15:25;;;;;;;;;;;3.20;99.90;;;;;;5095504;28;20358;-62
2022/03/02 07:17:51;;;;;;;;;;;2.70;99.90;;;;;;5095706;28;19935;-62
2022/03/02 07:20:16;;;;;;;;;;;2.80;99.90;;;;;;5077672;28;20393;-62
2022/03/02 07:22:46;;;;;;;;;;;2.90;99.90;;;;;;5094931;28;19931;-62
2022/03/02 07:25:19;;;;;;;;;;;2.90;99.90;;;;;;5077822;28;19924;-62
2022/03/02 07:27:45;;;;;;;;;;;2.90;99.90;;;;;;5096005;28;19925;-62
2022/03/02 07:30:11;;;;;;;;;;;3.00;99.90;;;;;;5094344;28;19924;-62
2022/03/02 07:32:41;;;;;;;;;;;;;;;;;;5094950;28;19928;-62
2022/03/02 07:35:06;;;;;;;;;;;2.50;99.90;;;;;;5096070;28;19959;-62
2022/03/02 07:37:32;;;;;;;;;;;3.20;99.90;;;;;;5077114;28;19975;-62
2022/03/02 07:39:59;;;;;;;;;;;3.40;99.90;;;;;;5088393;28;20377;-62
2022/03/02 07:42:24;;;;;;;;;;;3.50;99.90;;;;;;5114756;28;19924;-62
2022/03/02 07:44:51;;;;;;;;;;;3.60;99.90;;;;;;5077621;28;20247;-62
2022/03/02 07:47:17;;;;;;;;;;;3.70;99.90;;;;;;5095406;28;19928;-62
2022/03/02 07:49:43;;;;;;;;;;;3.80;99.90;;;;;;5113800;28;19923;-62
2022/03/02 07:52:10;;;;;;;;;;;3.90;99.90;;;;;;5106024;28;20023;-62
2022/03/02 07:54:37;;;;;;;;;;;4.00;99.90;;;;;;5095333;28;20301;-62
2022/03/02 07:57:03;;;;;;;;;;;4.10;99.90;;;;;;5082230;28;20026;-62
2022/03/02 07:59:36;;;;;;;;;;;4.20;99.90;;;;;;5115808;28;20334;-62
2022/03/02 08:02:04;;;;;;;;;;;4.30;99.90;;;;;;5115441;28;20026;-62
2022/03/02 08:04:30;;;;;;;;;;;4.40;99.90;;;;;;5096806;28;19924;-62
2022/03/02 08:06:56;;;;;;;;;;;4.50;99.90;;;;;;5100224;28;20321;-62
2022/03/02 08:09:21;;;;;;;;;;;4.60;99.90;;;;;;5074848;28;20011;-62
2022/03/02 08:11:47;;;;;;;;;;;4.60;99.90;;;;;;5074196;28;20382;-62
2022/03/02 08:14:13;;;;;;;;;;;4.80;99.90;;;;;;5076905;28;19931;-62
2022/03/02 08:16:40;;;;;;;;;;;4.80;99.90;;;;;;5102635;28;20069;-62
2022/03/02 08:19:07;;;;;;;;;;;4.90;99.90;;;;;;5094224;28;20013;-62
2022/03/02 08:21:34;;;;;;;;;;;4.90;99.90;;;;;;5092154;28;19928;-62
2022/03/02 08:24:02;;;;;;;;;;;5.00;99.90;;;;;;5103236;28;20057;-62
2022/03/02 08:26:32;;;;;;;;;;;5.10;99.90;;;;;;5075959;28;19932;-62
2022/03/02 08:29:00;;;;;;;;;;;5.10;99.90;;;;;;5094672;28;19925;-62
2022/03/02 08:31:27;;;;;;;;;;;5.30;99.90;;;;;;5094109;28;20337;-62
2022/03/02 08:33:53;;;;;;;;;;;5.10;99.90;;;;;;5094420;28;19931;-62
2022/03/02 08:36:21;;;;;;;;;;;5.50;99.90;;;;;;5093041;28;20374;-62
2022/03/02 08:38:49;;;;;;;;;;;5.60;99.90;;;;;;5073984;28;19935;-62
2022/03/02 08:41:15;;;;;;;;;;;5.70;99.90;;;;;;5094045;28;20297;-61
2022/03/02 08:43:41;;;;;;;;;;;5.80;99.90;;;;;;5093942;28;19924;-62
2022/03/02 08:46:07;;;;;;;;;;;5.90;99.90;;;;;;5093717;28;19931;-62
2022/03/02 08:48:32;;;;;;;;;;;6.00;99.90;;;;;;5094728;28;20345;-62
2022/03/02 08:50:59;;;;;;;;;;;6.00;99.90;;;;;;5088656;28;19967;-62
2022/03/02 08:53:25;;;;;;;;;;;6.10;99.90;;;;;;5075190;28;19924;-62
2022/03/02 08:55:53;;;;;;;;;;;6.10;99.90;;;;;;5091174;28;19963;-62
2022/03/02 08:58:18;;;;;;;;;;;6.20;99.90;;;;;;5085671;28;19978;-62
2022/03/02 09:00:44;;;;;;;;;;;6.30;99.90;;;;;;5093218;28;19967;-62
2022/03/02 09:03:13;;;;;;;;;;;6.30;99.90;;;;;;5075336;28;19978;-62
2022/03/02 09:05:39;;;;;;;;;;;6.40;99.90;;;;;;5075692;28;19931;-62
2022/03/02 09:08:06;;;;;;;;;;;6.50;99.90;;;;;;5093140;28;19931;-62
2022/03/02 09:10:32;;;;;;;;;;;6.60;99.90;;;;;;5092456;28;19924;-62
2022/03/02 09:12:59;;;;;;;;;;;6.70;99.90;;;;;;5093996;28;19931;-62
2022/03/02 09:15:26;;;;;;;;;;;6.80;99.90;;;;;;5089241;28;20122;-62
2022/03/02 09:17:52;;;;;;;;;;;6.80;99.90;;;;;;5076678;28;19931;-62
2022/03/02 09:20:17;;;;;;;;;;;6.90;99.90;;;;;;5077745;28;19925;-62
2022/03/02 09:22:43;;;;;;;;;;;7.00;99.90;;;;;;5076889;28;20013;-62
2022/03/02 09:25:10;;;;;;;;;;;7.10;99.90;;;;;;5097238;28;20001;-61
2022/03/02 09:27:36;;;;;;;;;;;7.20;99.90;;;;;;5114094;28;19946;-62
2022/03/02 09:30:05;;;;;;;;;;;7.30;99.90;;;;;;5113214;28;19977;-62
2022/03/02 09:32:31;;;;;;;;;;;7.40;99.90;;;;;;5114025;28;19927;-62
2022/03/02 09:34:59;;;;;;;;;;;7.50;99.90;;;;;;5100043;28;19932;-62
2022/03/02 09:37:25;;;;;;;;;;;7.60;99.90;;;;;;5092435;28;19923;-62
2022/03/02 09:39:52;;;;;;;;;;;7.50;99.90;;;;;;5093593;28;19951;-62
2022/03/02 09:42:22;;;;;;;;;;;7.60;99.90;;;;;;5097233;28;19924;-62
2022/03/02 09:44:51;;;;;;;;;;;7.70;99.90;;;;;;5110852;28;19924;-62
2022/03/02 09:47:18;;;;;;;;;;;7.70;99.90;;;;;;5054863;28;19928;-62
2022/03/02 09:49:47;;;;;;;;;;;7.80;99.90;;;;;;5070923;28;20016;-62
2022/03/02 09:52:15;;;;;;;;;;;7.90;99.90;;;;;;5088754;28;19931;-63
2022/03/02 09:54:44;;;;;;;;;;;8.10;99.90;;;;;;5095153;28;19923;-62
2022/03/02 09:57:09;;;;;;;;;;;8.10;99.90;;;;;;5113014;28;19923;-62
2022/03/02 09:59:37;;;;;;;;;;;8.30;99.90;;;;;;5090155;28;19924;-62
2022/03/02 10:02:04;;;;;;;;;;;8.30;99.90;;;;;;5069761;28;19942;-62
2022/03/02 10:04:29;;;;;;;;;;;8.40;99.90;;;;;;5075975;28;20011;-62
2022/03/02 10:07:26;;;;;;;;;;;8.50;99.90;;;;;;5092367;28;19940;-62
2022/03/02 10:09:45;;;;;;;;;;;8.70;99.90;;;;;;5094421;28;20382;-62
2022/03/02 10:12:13;;;;;;;;;;;8.90;99.90;;;;;;5112834;28;20403;-62
2022/03/02 10:14:39;;;;;;;;;;;9.00;99.90;;;;;;5099184;28;19931;-62
2022/03/02 10:17:04;;;;;;;;;;;9.20;99.90;;;;;;5091884;28;19928;-62
2022/03/02 10:19:33;;;;;;;;;;;9.40;99.90;;;;;;5087531;28;19935;-62
2022/03/02 10:22:04;;;;;;;;;;;9.80;99.90;;;;;;5092534;28;20364;-62
2022/03/02 10:24:30;;;;;;;;;;;10.20;99.90;;;;;;5074446;28;20374;-62
2022/03/02 10:26:58;;;;;;;;;;;10.50;99.90;;;;;;5090672;28;19931;-62
2022/03/02 10:29:30;;;;;;;;;;;11.60;99.90;;;;;;5093590;28;19928;-62
2022/03/02 10:32:05;;;;;;;;;;;11.80;99.90;;;;;;5095960;28;19935;-62
2022/03/02 10:34:33;;;;;;;;;;;12.70;99.90;;;;;;5092809;28;20019;-63
2022/03/02 10:37:08;;;;;;;;;;;13.10;99.90;;;;;;5103507;28;19976;-63
2022/03/02 10:39:35;;;;;;;;;;;13.50;99.90;;;;;;5111592;28;19928;-63
2022/03/02 10:42:04;;;;;;;;;;;13.90;99.40;;;;;;5112820;28;20026;-63
2022/03/02 10:44:43;;;;;;;;;;;14.40;99.90;;;;;;5055765;28;19928;-62
2022/03/02 10:47:10;;;;;;;;;;;15.20;97.90;;;;;;5091693;28;20370;-62
2022/03/02 10:49:39;;;;;;;;;;;16.70;99.90;;;;;;5075023;28;19960;-62
2022/03/02 10:52:05;;;;;;;;;;;16.60;89.20;;;;;;5092470;28;19927;-62
2022/03/02 10:54:30;;;;;;;;;;;16.70;90.30;;;;;;5102057;28;19924;-63
2022/03/02 10:56:57;;;;;;;;;;;16.80;90.20;;;;;;5112905;28;19927;-63
2022/03/02 10:59:24;;;;;;;;;;;16.60;80.30;;;;;;5094018;28;19990;-63
2022/03/02 11:01:51;;;;;;;;;;;16.30;92.50;;;;;;5113139;28;20270;-62
2022/03/02 11:04:18;;;;;;;;;;;15.80;87.00;;;;;;5094341;28;19947;-62
2022/03/02 11:06:44;;;;;;;;;;;15.10;89.60;;;;;;5091905;28;20339;-63
2022/03/02 11:09:09;;;;;;;;;;;14.50;97.00;;;;;;5077833;28;19928;-63
2022/03/02 11:11:36;;;;;;;;;;;13.80;94.90;;;;;;5086600;28;20022;-63
2022/03/02 11:14:03;;;;;;;;;;;13.30;99.10;;;;;;5093267;28;19931;-62
2022/03/02 11:16:28;;;;;;;;;;;13.00;99.90;;;;;;5094994;28;19932;-62
2022/03/02 11:18:55;;;;;;;;;;;12.80;99.90;;;;;;5096611;28;19976;-63
2022/03/02 11:21:27;;;;;;;;;;;12.90;99.90;;;;;;5107077;28;19924;-63
2022/03/02 11:23:54;;;;;;;;;;;13.50;99.90;;;;;;5116565;28;20042;-62
2022/03/02 11:26:23;;;;;;;;;;;14.20;98.70;;;;;;5097309;28;19924;-62
2022/03/02 11:28:50;;;;;;;;;;;14.80;95.60;;;;;;5114849;28;20278;-62
2022/03/02 11:31:18;;;;;;;;;;;15.80;93.00;;;;;;5109293;28;19931;-62
2022/03/02 11:33:43;;;;;;;;;;;16.60;91.00;;;;;;5099932;28;20048;-63
2022/03/02 11:36:10;;;;;;;;;;;16.80;81.00;;;;;;5115120;28;20435;-63
2022/03/02 11:38:38;;;;;;;;;;;16.20;82.30;;;;;;5112997;28;19924;-63
2022/03/02 11:41:04;;;;;;;;;;;15.40;89.00;;;;;;5097780;28;19931;-62
2022/03/02 11:43:32;;;;;;;;;;;14.90;95.50;;;;;;5104864;28;19924;-63
2022/03/02 11:45:59;;;;;;;;;;;14.40;96.00;;;;;;5062413;28;20019;-62
2022/03/02 11:48:26;;;;;;;;;;;14.00;97.10;;;;;;5094325;28;19927;-62
2022/03/02 11:51:02;;;;;;;;;;;13.60;96.90;;;;;;5095044;28;19970;-62
2022/03/02 11:53:29;;;;;;;;;;;13.40;98.90;;;;;;5079465;28;19935;-62
2022/03/02 11:55:55;;;;;;;;;;;13.20;99.00;;;;;;5093776;28;19970;-63
2022/03/02 11:58:21;;;;;;;;;;;13.10;99.90;;;;;;5081474;28;19924;-63
2022/03/02 12:00:46;;;;;;;;;;;12.80;99.90;;;;;;5094469;28;20294;-63
2022/03/02 12:03:12;;;;;;;;;;;12.70;99.90;;;;;;5077697;28;20414;-63
2022/03/02 12:05:38;;;;;;;;;;;12.70;99.90;;;;;;5076078;28;19935;-63
2022/03/02 12:08:05;;;;;;;;;;;12.60;99.80;;;;;;5095209;28;19931;-63
2022/03/02 12:10:32;;;;;;;;;;;12.70;99.90;;;;;;5075958;28;19924;-63
2022/03/02 12:12:58;;;;;;;;;;;12.60;99.90;;;;;;5094600;28;19924;-63
2022/03/02 12:15:24;;;;;;;;;;;12.60;99.70;;;;;;5060464;28;19931;-63
2022/03/02 12:17:51;;;;;;;;;;;12.60;99.90;;;;;;5093716;28;20378;-62
2022/03/02 12:20:19;;;;;;;;;;;12.80;99.90;;;;;;5094395;28;19989;-63
2022/03/02 12:22:48;;;;;;;;;;;13.10;99.90;;;;;;5102799;28;20286;-63
2022/03/02 12:25:15;;;;;;;;;;;13.30;98.80;;;;;;5104285;28;19930;-62
2022/03/02 12:27:41;;;;;;;;;;;13.50;99.00;;;;;;5093688;28;19928;-62
2022/03/02 12:30:09;;;;;;;;;;;13.60;98.20;;;;;;5095051;28;19978;-63
2022/03/02 12:32:36;;;;;;;;;;;13.70;99.50;;;;;;5110452;28;19924;-63
2022/03/02 12:35:03;;;;;;;;;;;13.70;97.10;;;;;;5115097;28;20311;-63
2022/03/02 12:37:29;;;;;;;;;;;14.00;98.30;;;;;;5112789;28;19930;-63
2022/03/02 12:39:55;;;;;;;;;;;14.30;97.70;;;;;;5097042;28;19966;-63
2022/03/02 12:42:21;;;;;;;;;;;14.40;96.60;;;;;;5096542;28;19967;-63
2022/03/02 12:44:47;;;;;;;;;;;14.30;98.70;;;;;;5075952;28;19963;-63
2022/03/02 12:47:15;;;;;;;;;;;14.00;99.10;;;;;;5094282;28;19924;-62
2022/03/02 12:49:42;;;;;;;;;;;14.20;99.80;;;;;;5087078;28;19931;-63
2022/03/02 12:52:08;;;;;;;;;;;14.70;97.60;;;;;;5114093;28;20408;-63
2022/03/02 12:54:35;;;;;;;;;;;15.40;95.30;;;;;;5115041;28;19919;-63
2022/03/02 12:57:03;;;;;;;;;;;15.60;95.60;;;;;;5114557;28;20309;-63
2022/03/02 12:59:29;;;;;;;;;;;16.00;87.30;;;;;;5093664;28;20386;-63
2022/03/02 13:01:55;;;;;;;;;;;16.40;90.20;;;;;;5093937;28;19931;-63
2022/03/02 13:04:26;;;;;;;;;;;16.30;87.40;;;;;;5094355;28;20290;-62
2022/03/02 13:06:56;;;;;;;;;;;16.10;91.90;;;;;;5100446;28;19931;-63
2022/03/02 13:09:23;;;;;;;;;;;16.10;91.30;;;;;;5094622;28;19924;-63
2022/03/02 13:11:49;;;;;;;;;;;16.60;87.70;;;;;;5093783;28;19924;-63
2022/03/02 13:14:34;;;;;;;;;;;17.10;82.90;;;;;;5093304;28;20374;-63
2022/03/02 13:17:14;;;;;;;;;;;17.50;73.40;;;;;;5111885;28;20055;-63
2022/03/02 13:19:44;;;;;;;;;;;17.70;71.10;;;;;;5095649;28;19928;-63
2022/03/02 13:22:15;;;;;;;;;;;17.70;73.50;;;;;;5092657;28;20374;-63
2022/03/02 13:24:45;;;;;;;;;;;17.80;69.40;;;;;;5095787;28;19928;-63
2022/03/02 13:27:12;;;;;;;;;;;18.10;71.70;;;;;;5092872;28;19920;-63
2022/03/02 13:29:49;;;;;;;;;;;18.50;71.70;;;;;;5093485;28;19931;-63
2022/03/02 13:32:14;;;;;;;;;;;18.60;66.50;;;;;;5093835;28;20335;-63
2022/03/02 13:35:00;;;;;;;;;;;18.60;64.90;;;;;;5110434;28;20103;-64
2022/03/02 13:37:45;;;;;;;;;;;18.80;66.20;;;;;;5112007;28;19924;-63
2022/03/02 13:40:31;;;;;;;;;;;19.10;67.50;;;;;;5075507;28;20019;-64
2022/03/02 13:43:21;;;;;;;;;;;19.10;63.70;;;;;;5091462;28;19924;-64
2022/03/02 13:46:07;;;;;;;;;;;18.80;66.70;;;;;;5075156;28;19935;-63
2022/03/02 13:48:34;;;;;;;;;;;18.20;67.20;;;;;;5092544;28;19924;-63
2022/03/02 13:50:59;;;;;;;;;;;17.80;68.20;;;;;;5098819;28;20385;-64
2022/03/02 13:53:33;;;;;;;;;;;17.30;69.80;;;;;;5113691;28;19924;-63
2022/03/02 13:56:03;;;;;;;;;;;17.00;65.80;;;;;;5112767;28;19980;-63
2022/03/02 13:58:29;;;;;;;;;;;16.60;68.80;;;;;;5113597;28;20366;-64
2022/03/02 14:01:09;;;;;;;;;;;16.30;67.70;;;;;;5079305;28;19970;-64
2022/03/02 14:03:39;;;;;;;;;;;15.80;68.60;;;;;;5092596;28;19924;-63
2022/03/02 14:06:06;;;;;;;;;;;15.30;71.80;;;;;;5093209;28;19926;-64
2022/03/02 14:08:42;;;;;;;;;;;14.90;75.60;;;;;;5089964;28;19924;-64
2022/03/02 14:11:08;;;;;;;;;;;14.70;83.30;;;;;;5094590;28;19988;-63
2022/03/02 14:13:34;;;;;;;;;;;14.60;83.30;;;;;;5098929;28;20012;-64
2022/03/02 14:16:02;;;;;;;;;;;14.60;86.30;;;;;;5074066;28;20359;-64
2022/03/02 14:18:28;;;;;;;;;;;14.40;86.90;;;;;;5090513;28;19982;-63
2022/03/02 14:20:54;;;;;;;;;;;14.30;88.90;;;;;;5083194;28;19928;-63
2022/03/02 14:23:19;;;;;;;;;;;14.70;92.00;;;;;;5092483;28;20011;-63
2022/03/02 14:25:51;;;;;;;;;;;15.40;87.40;;;;;;5093179;28;19931;-63